createdAt,value
2018-09-17T00:01:44.237Z,3.00
2018-09-17T00:03:48.790Z,3.87
2018-09-17T00:05:52.460Z,3.47
2018-09-17T00:07:56.880Z,2.97
2018-09-17T00:09:59.815Z,2.60
2018-09-17T00:12:02.752Z,2.77
2018-09-17T00:14:06.432Z,4.23
2018-09-17T00:16:09.375Z,6.13
2018-09-17T00:18:12.289Z,3.97
2018-09-17T00:20:15.314Z,3.03
2018-09-17T00:22:19.117Z,2.57
2018-09-17T00:24:22.792Z,5.50
2018-09-17T00:26:26.477Z,3.10
2018-09-17T00:28:29.431Z,3.20
2018-09-17T00:30:32.348Z,2.80
2018-09-17T00:32:35.265Z,3.13
2018-09-17T00:34:38.215Z,5.60
2018-09-17T00:36:41.207Z,6.93
2018-09-17T00:38:44.886Z,4.17
2018-09-17T00:40:47.823Z,3.87
2018-09-17T00:42:50.736Z,4.10
2018-09-17T00:44:53.785Z,3.90
2018-09-17T00:46:56.718Z,5.20
2018-09-17T00:48:59.638Z,2.97
2018-09-17T00:51:03.315Z,2.63
2018-09-17T00:53:06.260Z,4.10
2018-09-17T00:55:09.174Z,3.17
2018-09-17T00:57:12.183Z,4.07
2018-09-17T00:59:15.884Z,4.60
2018-09-17T01:01:19.556Z,2.80
2018-09-17T01:03:22.464Z,6.53
2018-09-17T01:05:26.165Z,5.93
2018-09-17T01:07:29.834Z,3.23
2018-09-17T01:09:32.847Z,4.83
2018-09-17T01:11:36.769Z,4.00
2018-09-17T01:13:39.673Z,2.60
2018-09-17T01:15:42.579Z,19.83
2018-09-17T01:17:45.528Z,2.63
2018-09-17T01:19:48.436Z,2.53
2018-09-17T01:21:51.344Z,4.07
2018-09-17T01:23:54.444Z,5.70
2018-09-17T01:25:58.247Z,4.37
2018-09-17T01:28:01.927Z,3.80
2018-09-17T01:30:04.884Z,4.13
2018-09-17T01:32:08.810Z,3.58
2018-09-17T01:34:11.742Z,6.63
2018-09-17T01:36:14.698Z,2.93
2018-09-17T01:38:18.381Z,4.90
2018-09-17T01:40:22.069Z,3.03
2018-09-17T01:42:25.012Z,5.50
2018-09-17T01:44:27.930Z,12.70
2018-09-17T01:46:30.945Z,12.83
2018-09-17T01:48:34.645Z,4.03
2018-09-17T01:50:38.348Z,3.63
2018-09-17T01:52:42.016Z,5.50
2018-09-17T01:54:44.960Z,3.60
2018-09-17T01:56:47.884Z,3.27
2018-09-17T01:58:51.586Z,4.63
2018-09-17T02:00:56.257Z,4.17
2018-09-17T02:02:59.396Z,3.33
2018-09-17T02:05:03.032Z,7.40
2018-09-17T02:07:05.978Z,3.13
2018-09-17T02:09:09.021Z,8.73
2018-09-17T02:11:11.837Z,2.93
2018-09-17T02:13:15.481Z,3.10
2018-09-17T02:15:18.372Z,20.13
2018-09-17T02:17:21.252Z,7.93
2018-09-17T02:19:24.156Z,4.07
2018-09-17T02:21:27.187Z,5.93
2018-09-17T02:23:30.812Z,3.63
2018-09-17T02:25:33.705Z,3.93
2018-09-17T02:27:36.627Z,3.53
2018-09-17T02:29:39.598Z,4.50
2018-09-17T02:31:43.398Z,4.57
2018-09-17T02:33:46.301Z,5.07
2018-09-17T02:35:49.932Z,4.40
2018-09-17T02:37:52.862Z,4.67
2018-09-17T02:39:55.865Z,8.30
2018-09-17T02:41:58.754Z,5.37
2018-09-17T02:44:02.421Z,7.03
2018-09-17T02:46:05.315Z,12.30
2018-09-17T02:48:08.954Z,7.70
2018-09-17T02:50:11.892Z,14.17
2018-09-17T02:52:15.562Z,19.03
2018-09-17T02:54:18.598Z,19.50
2018-09-17T02:56:21.564Z,20.43
2018-09-17T02:58:25.248Z,15.90
2018-09-17T03:00:28.334Z,17.03
2018-09-17T03:02:31.989Z,13.90
2018-09-17T03:04:34.881Z,13.27
2018-09-17T03:06:37.895Z,19.03
2018-09-17T03:08:46.954Z,9.10
2018-09-17T03:10:50.580Z,9.80
2018-09-17T03:12:53.500Z,7.87
2018-09-17T03:14:56.482Z,10.00
2018-09-17T03:17:04.314Z,9.90
2018-09-17T03:19:07.984Z,6.63
2018-09-17T03:21:10.893Z,11.17
2018-09-17T03:23:14.657Z,14.67
2018-09-17T03:25:17.660Z,12.35
2018-09-17T03:27:21.324Z,14.43
2018-09-17T03:29:24.444Z,11.50
2018-09-17T03:31:28.101Z,13.80
2018-09-17T03:33:30.981Z,17.30
2018-09-17T03:35:34.096Z,15.40
2018-09-17T03:37:36.965Z,9.77
2018-09-17T03:39:39.853Z,15.73
2018-09-17T03:41:42.745Z,3.93
2018-09-17T03:43:46.481Z,10.20
2018-09-17T03:45:50.113Z,8.27
2018-09-17T03:47:53.020Z,13.50
2018-09-17T03:49:56.674Z,14.10
2018-09-17T03:51:59.601Z,18.13
2018-09-17T03:54:03.308Z,7.97
2018-09-17T03:56:06.285Z,8.43
2018-09-17T03:58:09.200Z,8.63
2018-09-17T04:00:12.121Z,14.37
2018-09-17T04:02:15.033Z,9.47
2018-09-17T04:04:17.970Z,16.07
2018-09-17T04:06:21.897Z,11.12
2018-09-17T04:08:25.816Z,14.18
2018-09-17T04:10:28.717Z,6.63
2018-09-17T04:12:31.717Z,13.13
2018-09-17T04:14:34.769Z,6.13
2018-09-17T04:16:37.778Z,7.07
2018-09-17T04:18:41.445Z,10.20
2018-09-17T04:20:44.357Z,7.83
2018-09-17T04:22:48.024Z,7.67
2018-09-17T04:24:50.890Z,8.33
2018-09-17T04:26:53.775Z,6.37
2018-09-17T04:28:56.671Z,13.10
2018-09-17T04:30:59.557Z,7.07
2018-09-17T04:33:02.576Z,7.03
2018-09-17T04:35:06.194Z,5.17
2018-09-17T04:37:09.134Z,9.63
2018-09-17T04:39:12.904Z,12.73
2018-09-17T04:41:15.788Z,8.20
2018-09-17T04:43:18.677Z,15.37
2018-09-17T04:45:21.605Z,8.37
2018-09-17T04:47:24.553Z,5.33
2018-09-17T04:49:27.434Z,8.53
2018-09-17T04:51:30.341Z,13.03
2018-09-17T04:53:34.006Z,4.70
2018-09-17T04:55:36.975Z,5.73
2018-09-17T04:57:39.865Z,6.40
2018-09-17T04:59:42.753Z,6.33
2018-09-17T05:01:46.429Z,7.77
2018-09-17T05:03:49.359Z,5.87
2018-09-17T05:05:53.003Z,7.73
2018-09-17T05:07:55.898Z,7.87
2018-09-17T05:09:58.780Z,8.17
2018-09-17T05:12:01.897Z,5.60
2018-09-17T05:14:04.762Z,8.50
2018-09-17T05:16:08.421Z,4.40
2018-09-17T05:18:11.317Z,8.83
2018-09-17T05:20:14.200Z,4.87
2018-09-17T05:22:17.166Z,5.07
2018-09-17T05:24:20.820Z,5.83
2018-09-17T05:26:24.469Z,9.03
2018-09-17T05:28:27.341Z,4.97
2018-09-17T05:30:30.241Z,7.27
2018-09-17T05:32:33.127Z,5.63
2018-09-17T05:34:36.034Z,8.23
2018-09-17T05:36:39.112Z,5.90
2018-09-17T05:38:42.065Z,6.43
2018-09-17T05:40:44.945Z,4.57
2018-09-17T05:42:47.850Z,9.33
2018-09-17T05:44:50.737Z,6.83
2018-09-17T05:46:53.730Z,13.67
2018-09-17T05:48:58.235Z,12.00
2018-09-17T05:51:01.117Z,18.03
2018-09-17T05:53:04.017Z,9.80
2018-09-17T05:55:07.666Z,7.60
2018-09-17T05:57:10.567Z,17.03
2018-09-17T05:59:13.563Z,6.47
2018-09-17T06:01:16.449Z,12.83
2018-09-17T06:03:20.114Z,10.37
2018-09-17T06:05:23.032Z,10.00
2018-09-17T06:07:26.002Z,7.90
2018-09-17T06:09:28.901Z,7.80
2018-09-17T06:11:32.558Z,11.30
2018-09-17T06:13:35.443Z,14.03
2018-09-17T06:15:38.549Z,8.80
2018-09-17T06:17:41.535Z,25.43
2018-09-17T06:19:44.494Z,10.37
2018-09-17T06:21:47.407Z,15.97
2018-09-17T06:23:51.057Z,11.37
2018-09-17T06:25:53.942Z,16.80
2018-09-17T06:27:57.020Z,9.23
2018-09-17T06:29:59.885Z,14.93
2018-09-17T06:32:02.772Z,7.70
2018-09-17T06:34:05.844Z,11.10
2018-09-17T06:36:09.492Z,18.40
2018-09-17T06:38:12.396Z,8.60
2018-09-17T06:40:16.080Z,11.20
2018-09-17T06:42:18.986Z,7.60
2018-09-17T06:44:21.966Z,6.93
2018-09-17T06:46:25.624Z,9.33
2018-09-17T06:48:28.509Z,16.80
2018-09-17T06:50:31.433Z,10.73
2018-09-17T06:52:35.106Z,8.23
2018-09-17T06:54:37.982Z,11.37
2018-09-17T06:56:41.072Z,8.90
2018-09-17T06:58:43.986Z,8.30
2018-09-17T07:00:47.618Z,8.87
2018-09-17T07:02:50.521Z,7.70
2018-09-17T07:04:53.406Z,19.80
2018-09-17T07:06:56.509Z,12.03
2018-09-17T07:09:00.902Z,16.43
2018-09-17T07:11:03.780Z,12.43
2018-09-17T07:13:06.701Z,10.43
2018-09-17T07:15:10.358Z,20.30
2018-09-17T07:17:13.249Z,17.03
2018-09-17T07:19:16.162Z,18.47
2018-09-17T07:21:19.843Z,12.57
2018-09-17T07:23:22.733Z,17.60
2018-09-17T07:25:27.218Z,18.50
2018-09-17T07:27:30.131Z,23.00
2018-09-17T07:29:33.027Z,20.23
2018-09-17T07:31:36.704Z,21.20
2018-09-17T07:33:41.109Z,20.00
2018-09-17T07:35:44.008Z,21.50
2018-09-17T07:37:46.936Z,17.97
2018-09-17T07:39:49.813Z,35.53
2018-09-17T07:41:52.801Z,21.50
2018-09-17T07:43:55.742Z,14.00
2018-09-17T07:45:58.707Z,15.57
2018-09-17T07:48:01.667Z,13.80
2018-09-17T07:50:04.566Z,12.23
2018-09-17T07:52:07.445Z,12.83
2018-09-17T07:54:10.455Z,12.80
2018-09-17T07:56:13.333Z,16.47
2018-09-17T07:58:16.988Z,12.50
2018-09-17T08:00:20.217Z,17.33
2018-09-17T08:02:23.202Z,15.00
2018-09-17T08:04:26.073Z,15.27
2018-09-17T08:06:28.989Z,18.67
2018-09-17T08:08:32.663Z,25.40
2018-09-17T08:10:37.048Z,22.27
2018-09-17T08:12:39.986Z,16.80
2018-09-17T08:14:42.933Z,13.53
2018-09-17T08:16:47.361Z,13.70
2018-09-17T08:18:51.014Z,14.20
2018-09-17T08:20:53.932Z,18.00
2018-09-17T08:22:56.952Z,13.57
2018-09-17T08:25:00.620Z,26.53
2018-09-17T08:27:03.577Z,13.93
2018-09-17T08:29:06.505Z,19.90
2018-09-17T08:31:09.500Z,13.13
2018-09-17T08:33:13.144Z,12.00
2018-09-17T08:35:16.040Z,23.33
2018-09-17T08:37:20.490Z,13.83
2018-09-17T08:39:23.482Z,16.87
2018-09-17T08:41:26.373Z,12.93
2018-09-17T08:43:29.277Z,12.77
2018-09-17T08:45:32.288Z,22.33
2018-09-17T08:47:35.169Z,12.57
2018-09-17T08:49:39.578Z,19.37
2018-09-17T08:51:42.569Z,9.07
2018-09-17T08:53:45.555Z,13.37
2018-09-17T08:55:49.936Z,8.23
2018-09-17T08:57:52.833Z,16.40
2018-09-17T08:59:55.737Z,13.90
2018-09-17T09:01:58.620Z,13.30
2018-09-17T09:04:02.326Z,8.50
2018-09-17T09:06:05.146Z,8.50
2018-09-17T09:08:08.045Z,8.63
2018-09-17T09:10:10.932Z,6.87
2018-09-17T09:12:13.873Z,11.43
2018-09-17T09:14:16.784Z,7.63
2018-09-17T09:16:19.665Z,8.87
2018-09-17T09:18:22.569Z,6.30
2018-09-17T09:20:26.305Z,11.00
2018-09-17T09:22:29.937Z,6.67
2018-09-17T09:24:32.869Z,8.00
2018-09-17T09:26:36.522Z,9.97
2018-09-17T09:28:39.409Z,13.33
2018-09-17T09:30:42.348Z,14.53
2018-09-17T09:32:46.031Z,13.77
2018-09-17T09:34:48.895Z,15.43
2018-09-17T09:36:52.582Z,13.30
2018-09-17T09:38:55.475Z,12.70
2018-09-17T09:40:58.341Z,8.37
2018-09-17T09:43:01.257Z,10.80
2018-09-17T09:45:04.926Z,14.70
2018-09-17T09:47:07.798Z,10.73
2018-09-17T09:49:10.800Z,14.40
2018-09-17T09:51:14.327Z,11.30
2018-09-17T09:53:18.557Z,8.93
2018-09-17T09:55:21.759Z,13.23
2018-09-17T09:57:25.624Z,12.37
2018-09-17T09:59:29.675Z,16.40
2018-09-17T10:01:34.355Z,10.03
2018-09-17T10:03:37.598Z,9.50
2018-09-17T10:05:41.453Z,13.40
2018-09-17T10:07:44.792Z,24.87
2018-09-17T10:09:48.249Z,11.60
2018-09-17T10:12:07.276Z,9.40
2018-09-17T10:14:16.709Z,12.00
2018-09-17T10:16:21.100Z,9.60
2018-09-17T10:18:39.575Z,8.00
2018-09-17T10:20:42.484Z,10.23
2018-09-17T10:22:46.111Z,11.47
2018-09-17T10:24:49.025Z,14.77
2018-09-17T10:26:51.896Z,9.97
2018-09-17T10:28:54.857Z,10.77
2018-09-17T10:30:57.784Z,7.60
2018-09-17T10:33:00.655Z,7.10
2018-09-17T10:35:03.517Z,9.70
2018-09-17T10:37:06.413Z,6.70
2018-09-17T10:39:09.304Z,15.83
2018-09-17T10:41:12.173Z,8.73
2018-09-17T10:43:15.281Z,22.17
2018-09-17T10:45:18.944Z,15.60
2018-09-17T10:47:21.837Z,8.37
2018-09-17T10:49:24.712Z,6.17
2018-09-17T10:51:28.741Z,5.70
2018-09-17T10:53:31.613Z,6.13
2018-09-17T10:55:34.718Z,6.60
2018-09-17T10:57:38.431Z,9.23
2018-09-17T10:59:42.056Z,5.97
2018-09-17T11:01:44.985Z,10.93
2018-09-17T11:03:47.859Z,12.20
2018-09-17T11:05:50.773Z,14.53
2018-09-17T11:07:54.424Z,7.07
2018-09-17T11:09:57.301Z,10.33
2018-09-17T11:12:00.169Z,11.67
2018-09-17T11:14:03.364Z,5.97
2018-09-17T11:16:06.257Z,7.07
2018-09-17T11:18:09.150Z,6.10
2018-09-17T11:20:12.050Z,9.67
2018-09-17T11:22:15.719Z,7.50
2018-09-17T11:24:18.597Z,7.40
2018-09-17T11:26:21.494Z,5.40
2018-09-17T11:28:24.373Z,6.23
2018-09-17T11:30:27.245Z,4.33
2018-09-17T11:32:31.014Z,5.33
2018-09-17T11:34:33.896Z,4.43
2018-09-17T11:36:36.789Z,5.83
2018-09-17T11:38:39.730Z,9.50
2018-09-17T11:40:43.489Z,5.53
2018-09-17T11:42:46.371Z,8.77
2018-09-17T11:44:49.270Z,8.07
2018-09-17T11:46:52.194Z,7.50
2018-09-17T11:48:55.133Z,7.30
2018-09-17T11:50:58.159Z,4.77
2018-09-17T11:53:01.077Z,3.50
2018-09-17T11:55:04.063Z,3.60
2018-09-17T11:57:09.041Z,4.55
2018-09-17T11:59:12.705Z,8.37
2018-09-17T12:01:15.616Z,5.20
2018-09-17T12:03:19.263Z,2.60
2018-09-17T12:05:22.144Z,2.70
2018-09-17T12:07:30.634Z,7.93
2018-09-17T12:09:34.309Z,10.53
2018-09-17T12:11:38.083Z,5.23
2018-09-17T12:13:40.958Z,7.77
2018-09-17T12:15:43.826Z,6.80
2018-09-17T12:17:46.926Z,15.13
2018-09-17T12:19:49.805Z,8.20
2018-09-17T12:22:04.090Z,6.23
2018-09-17T12:28:33.862Z,7.33
2018-09-17T12:38:33.072Z,8.70
2018-09-17T12:48:33.136Z,5.43
2018-09-17T12:58:32.195Z,3.63
2018-09-17T13:00:45.810Z,2.60
2018-09-17T13:05:14.506Z,4.22
2018-09-17T13:07:18.140Z,6.27
2018-09-17T13:09:21.161Z,7.50
2018-09-17T13:11:24.036Z,10.70
2018-09-17T13:13:26.993Z,5.20
2018-09-17T13:15:29.893Z,7.57
2018-09-17T13:17:32.796Z,3.83
2018-09-17T13:19:35.661Z,3.20
2018-09-17T13:21:38.579Z,3.97
2018-09-17T13:23:42.234Z,3.53
2018-09-17T13:25:45.173Z,3.23
2018-09-17T13:27:48.122Z,3.00
2018-09-17T13:29:51.778Z,4.53
2018-09-17T13:31:54.716Z,5.97
2018-09-17T13:33:57.561Z,5.60
2018-09-17T13:36:00.453Z,2.70
2018-09-17T13:38:04.844Z,4.47
2018-09-17T13:40:07.961Z,2.60
2018-09-17T13:42:11.615Z,4.13
2018-09-17T13:44:14.533Z,3.73
2018-09-17T13:46:17.429Z,5.03
2018-09-17T13:48:20.315Z,3.27
2018-09-17T13:50:23.224Z,3.33
2018-09-17T13:52:26.182Z,3.00
2018-09-17T13:54:29.863Z,3.10
2018-09-17T13:56:32.864Z,3.90
2018-09-17T13:58:35.737Z,2.90
2018-09-17T14:00:39.416Z,5.10
2018-09-17T14:02:43.009Z,4.97
2018-09-17T14:04:45.883Z,3.73
2018-09-17T14:06:48.761Z,3.47
2018-09-17T14:08:51.672Z,3.47
2018-09-17T14:10:54.645Z,3.10
2018-09-17T14:12:57.525Z,3.10
2018-09-17T14:15:00.520Z,3.17
2018-09-17T14:17:05.061Z,3.10
2018-09-17T14:19:08.701Z,3.80
2018-09-17T14:21:11.729Z,2.40
2018-09-17T14:23:15.400Z,3.70
2018-09-17T14:25:18.261Z,4.00
2018-09-17T14:27:21.178Z,2.50
2018-09-17T14:29:24.889Z,3.37
2018-09-17T14:31:27.792Z,2.93
2018-09-17T14:33:36.345Z,3.03
2018-09-17T14:35:39.363Z,13.07
2018-09-17T14:37:43.034Z,3.60
2018-09-17T14:39:45.973Z,2.73
2018-09-17T14:41:48.852Z,2.20
2018-09-17T14:43:51.790Z,4.27
2018-09-17T14:45:54.717Z,3.27
2018-09-17T14:47:58.365Z,2.50
2018-09-17T14:50:01.290Z,2.80
2018-09-17T14:52:04.978Z,3.80
2018-09-17T14:54:08.045Z,4.30
2018-09-17T14:56:10.922Z,2.13
2018-09-17T14:58:13.820Z,4.27
2018-09-17T15:00:16.819Z,5.73
2018-09-17T15:02:20.457Z,2.77
2018-09-17T15:04:23.474Z,3.17
2018-09-17T15:06:27.769Z,2.40
2018-09-17T15:08:30.746Z,2.20
2018-09-17T15:10:33.563Z,2.60
2018-09-17T15:12:37.262Z,2.03
2018-09-17T15:14:41.623Z,2.30
2018-09-17T15:16:45.729Z,2.40
2018-09-17T15:18:49.481Z,2.13
2018-09-17T15:20:53.177Z,4.73
2018-09-17T15:22:56.057Z,4.87
2018-09-17T15:24:58.950Z,8.30
2018-09-17T15:27:02.601Z,2.50
2018-09-17T15:29:05.636Z,2.90
2018-09-17T15:31:08.531Z,2.90
2018-09-17T15:33:13.042Z,2.93
2018-09-17T15:35:17.463Z,11.90
2018-09-17T15:37:21.105Z,3.03
2018-09-17T15:39:24.065Z,2.57
2018-09-17T15:41:27.081Z,2.07
2018-09-17T15:43:30.643Z,3.73
2018-09-17T15:45:33.513Z,2.60
2018-09-17T15:47:36.475Z,3.30
2018-09-17T15:49:39.350Z,2.43
2018-09-17T15:51:42.282Z,2.47
2018-09-17T15:53:45.149Z,3.00
2018-09-17T15:55:48.047Z,3.77
2018-09-17T15:57:50.966Z,2.80
2018-09-17T15:59:53.817Z,13.17
2018-09-17T16:01:56.732Z,4.77
2018-09-17T16:04:00.516Z,4.20
2018-09-17T16:06:04.954Z,7.43
2018-09-17T16:08:07.880Z,2.00
2018-09-17T16:10:10.903Z,5.97
2018-09-17T16:12:13.781Z,2.43
2018-09-17T16:14:16.797Z,3.60
2018-09-17T16:16:19.757Z,3.27
2018-09-17T16:18:23.408Z,3.23
2018-09-17T16:20:26.337Z,3.00
2018-09-17T16:22:29.278Z,5.13
2018-09-17T16:24:32.158Z,3.50
2018-09-17T16:26:35.057Z,4.30
2018-09-17T16:28:37.933Z,3.17
2018-09-17T16:30:40.801Z,2.20
2018-09-17T16:32:43.705Z,3.00
2018-09-17T16:34:46.642Z,2.53
2018-09-17T16:36:49.602Z,2.17
2018-09-17T16:38:52.498Z,2.80
2018-09-17T16:40:56.208Z,2.33
2018-09-17T16:42:59.005Z,3.20
2018-09-17T16:45:01.909Z,2.57
2018-09-17T16:47:04.827Z,2.63
2018-09-17T16:49:07.653Z,2.73
2018-09-17T16:51:10.543Z,4.13
2018-09-17T16:53:13.452Z,5.20
2018-09-17T16:55:16.318Z,4.10
2018-09-17T16:57:19.226Z,1.90
2018-09-17T16:59:22.963Z,2.67
2018-09-17T17:01:25.784Z,8.80
2018-09-17T17:03:28.658Z,6.97
2018-09-17T17:05:31.688Z,4.20
2018-09-17T17:07:35.340Z,3.93
2018-09-17T17:09:38.216Z,4.27
2018-09-17T17:11:41.136Z,2.70
2018-09-17T17:13:43.985Z,10.00
2018-09-17T17:15:46.891Z,4.70
2018-09-17T17:17:50.682Z,2.93
2018-09-17T17:19:54.390Z,2.60
2018-09-17T17:21:57.339Z,3.57
2018-09-17T17:24:00.958Z,2.20
2018-09-17T17:26:03.877Z,5.13
2018-09-17T17:28:07.519Z,3.30
2018-09-17T17:30:10.529Z,4.90
2018-09-17T17:32:14.901Z,5.27
2018-09-17T17:34:17.840Z,14.53
2018-09-17T17:36:21.488Z,5.13
2018-09-17T17:38:24.365Z,4.23
2018-09-17T17:40:27.397Z,6.87
2018-09-17T17:42:30.291Z,6.30
2018-09-17T17:44:33.205Z,4.73
2018-09-17T17:46:36.275Z,8.30
2018-09-17T17:48:39.105Z,3.80
2018-09-17T17:50:41.981Z,4.63
2018-09-17T17:52:44.913Z,3.30
2018-09-17T17:54:48.589Z,5.73
2018-09-17T17:56:52.266Z,6.37
2018-09-17T17:58:56.696Z,4.93
2018-09-17T18:00:59.674Z,5.00
2018-09-17T18:03:03.221Z,8.53
2018-09-17T18:05:06.151Z,9.07
2018-09-17T18:07:09.021Z,7.53
2018-09-17T18:09:11.910Z,5.70
2018-09-17T18:11:14.821Z,8.93
2018-09-17T18:13:18.477Z,6.17
2018-09-17T18:15:21.500Z,4.13
2018-09-17T18:17:24.371Z,5.57
2018-09-17T18:19:28.061Z,7.90
2018-09-17T18:21:31.058Z,4.93
2018-09-17T18:23:34.629Z,3.63
2018-09-17T18:25:37.617Z,14.43
2018-09-17T18:27:40.497Z,3.33
2018-09-17T18:29:44.905Z,5.70
2018-09-17T18:31:47.781Z,5.07
2018-09-17T18:33:50.670Z,4.20
2018-09-17T18:35:53.613Z,4.73
2018-09-17T18:37:56.475Z,7.40
2018-09-17T18:39:59.421Z,5.53
2018-09-17T18:42:02.502Z,4.00
2018-09-17T18:44:05.390Z,11.10
2018-09-17T18:46:08.315Z,5.33
2018-09-17T18:48:12.016Z,2.50
2018-09-17T18:50:15.629Z,6.53
2018-09-17T18:52:18.509Z,2.97
2018-09-17T18:54:21.451Z,5.30
2018-09-17T18:56:24.334Z,11.23
2018-09-17T18:58:27.174Z,5.27
2018-09-17T19:00:30.106Z,9.40
2018-09-17T19:02:33.729Z,6.97
2018-09-17T19:04:36.597Z,6.10
2018-09-17T19:06:39.562Z,7.80
2018-09-17T19:08:43.256Z,7.90
2018-09-17T19:10:46.212Z,3.83
2018-09-17T19:12:49.238Z,5.50
2018-09-17T19:15:13.792Z,6.03
2018-09-17T19:17:16.659Z,4.77
2018-09-17T19:19:19.668Z,4.33
2018-09-17T19:21:23.325Z,6.60
2018-09-17T19:23:41.076Z,5.90
2018-09-17T19:25:43.996Z,3.20
2018-09-17T19:27:46.937Z,3.07
2018-09-17T19:29:49.818Z,5.63
2018-09-17T19:31:52.740Z,6.00
2018-09-17T19:33:55.599Z,4.13
2018-09-17T19:35:58.502Z,2.47
2018-09-17T19:38:01.436Z,4.00
2018-09-17T19:40:11.263Z,3.10
2018-09-17T19:42:14.247Z,6.80
2018-09-17T19:44:17.934Z,3.13
2018-09-17T19:46:20.852Z,7.13
2018-09-17T19:48:23.655Z,5.97
2018-09-17T19:50:27.418Z,3.90
2018-09-17T19:52:30.322Z,3.67
2018-09-17T19:54:33.193Z,3.00
2018-09-17T19:56:36.358Z,13.87
2018-09-17T19:58:54.105Z,3.90
2018-09-17T20:00:57.027Z,23.17
2018-09-17T20:02:59.932Z,6.27
2018-09-17T20:05:23.378Z,9.97
2018-09-17T20:07:26.356Z,4.93
2018-09-17T20:09:29.312Z,8.37
2018-09-17T20:11:32.216Z,7.17
2018-09-17T20:13:35.853Z,9.17
2018-09-17T20:15:38.741Z,4.37
2018-09-17T20:17:41.629Z,5.60
2018-09-17T20:19:44.564Z,6.33
2018-09-17T20:21:48.226Z,4.67
2018-09-17T20:23:51.113Z,11.17
2018-09-17T20:25:54.760Z,7.43
2018-09-17T20:27:57.746Z,10.63
2018-09-17T20:30:00.667Z,8.33
2018-09-17T20:32:03.528Z,6.30
2018-09-17T20:34:06.437Z,5.83
2018-09-17T20:36:09.301Z,8.10
2018-09-17T20:38:12.190Z,5.73
2018-09-17T20:40:15.065Z,4.73
2018-09-17T20:42:17.941Z,4.00
2018-09-17T20:44:20.813Z,4.87
2018-09-17T20:46:23.754Z,4.33
2018-09-17T20:48:26.652Z,4.30
2018-09-17T20:50:29.515Z,5.67
2018-09-17T20:52:33.196Z,9.23
2018-09-17T20:54:36.073Z,10.67
2018-09-17T20:56:39.735Z,3.03
2018-09-17T20:58:42.632Z,3.20
2018-09-17T21:00:45.552Z,3.97
2018-09-17T21:02:48.393Z,3.03
2018-09-17T21:04:51.426Z,3.00
2018-09-17T21:06:54.580Z,3.03
2018-09-17T21:08:58.069Z,4.43
2018-09-17T21:11:00.953Z,4.73
2018-09-17T21:13:03.858Z,6.60
2018-09-17T21:15:06.695Z,5.63
2018-09-17T21:17:09.591Z,3.67
2018-09-17T21:19:12.523Z,5.93
2018-09-17T21:21:15.349Z,3.13
2018-09-17T21:23:18.265Z,4.47
2018-09-17T21:25:21.987Z,6.63
2018-09-17T21:27:24.765Z,4.60
2018-09-17T21:29:27.678Z,3.90
2018-09-17T21:31:30.558Z,3.83
2018-09-17T21:33:33.441Z,16.50
2018-09-17T21:35:36.349Z,10.10
2018-09-17T21:37:39.989Z,5.77
2018-09-17T21:39:42.866Z,5.60
2018-09-17T21:41:45.792Z,4.77
2018-09-17T21:43:48.670Z,5.90
2018-09-17T21:45:51.561Z,3.67
2018-09-17T21:47:54.533Z,12.70
2018-09-17T21:49:57.409Z,4.90
2018-09-17T21:52:00.419Z,8.10
2018-09-17T21:54:03.487Z,3.50
2018-09-17T21:56:06.344Z,5.10
2018-09-17T21:58:09.253Z,4.20
2018-09-17T22:00:12.369Z,4.87
2018-09-17T22:02:16.056Z,4.50
2018-09-17T22:04:18.943Z,6.63
2018-09-17T22:06:21.801Z,5.87
2018-09-17T22:08:24.817Z,5.73
2018-09-17T22:10:28.482Z,3.20
2018-09-17T22:12:31.425Z,3.23
2018-09-17T22:14:34.331Z,3.13
2018-09-17T22:16:37.230Z,3.03
2018-09-17T22:18:41.747Z,6.33
2018-09-17T22:20:44.662Z,3.40
2018-09-17T22:22:48.323Z,7.37
2018-09-17T22:24:51.216Z,9.40
2018-09-17T22:26:54.091Z,4.83
2018-09-17T22:28:56.997Z,5.00
2018-09-17T22:30:59.969Z,3.70
2018-09-17T22:33:02.834Z,4.20
2018-09-17T22:35:05.868Z,3.20
2018-09-17T22:37:08.834Z,3.10
2018-09-17T22:39:11.762Z,3.83
2018-09-17T22:41:14.633Z,3.67
2018-09-17T22:43:17.642Z,9.93
2018-09-17T22:45:20.622Z,13.70
2018-09-17T22:47:23.518Z,11.30
2018-09-17T22:49:27.211Z,9.87
2018-09-17T22:51:30.066Z,3.73
2018-09-17T22:53:32.932Z,6.20
2018-09-17T22:55:35.834Z,4.30
2018-09-17T22:57:38.704Z,2.93
2018-09-17T22:59:41.605Z,5.10
2018-09-17T23:01:44.527Z,5.10
2018-09-17T23:03:48.169Z,5.20
2018-09-17T23:05:51.053Z,7.43
2018-09-17T23:07:53.949Z,3.57
2018-09-17T23:09:56.825Z,5.90
2018-09-17T23:11:59.817Z,16.73
2018-09-17T23:14:04.267Z,5.70
2018-09-17T23:16:07.899Z,3.50
2018-09-17T23:18:10.834Z,3.37
2018-09-17T23:20:13.735Z,6.10
2018-09-17T23:22:16.673Z,6.50
2018-09-17T23:24:20.513Z,4.90
2018-09-17T23:26:23.433Z,3.93
2018-09-17T23:28:26.312Z,6.30
2018-09-17T23:30:29.217Z,6.13
2018-09-17T23:32:32.312Z,3.10
2018-09-17T23:34:35.186Z,8.47
2018-09-17T23:36:38.169Z,14.13
2018-09-17T23:38:41.262Z,6.47
2018-09-17T23:40:44.137Z,4.37
2018-09-17T23:42:47.031Z,4.60
2018-09-17T23:44:50.781Z,7.67
2018-09-17T23:46:53.677Z,5.53
2018-09-17T23:48:56.581Z,9.53
2018-09-17T23:50:59.659Z,6.50
2018-09-17T23:53:02.591Z,5.37
2018-09-17T23:55:06.208Z,11.10
2018-09-17T23:57:09.121Z,8.57
2018-09-17T23:59:11.996Z,10.10
